• Join FlightAware (Why Join?)
  • Login
  • US Flag 
07:39PM EST


 

Airport Tracker/Info


-or-


 

Live Flight TrackerFlight Track Log ✈ AWE1253 ✈ 30-Apr-2013 ✈ KPHL - KTPA

Flight Track Log - Related Links

Times and Time Zones

All times are in EDT time to prevent confusion due to time zone crossing. See the AWE1253 flight status page for this flight to view local times or setup timezone preferences in your user account.

Time Position Orientation Groundspeed Altitude Reporting Facility
EDT Latitude Longitude Course Direction KTS MPH feet Rate Location/Type
09:17PM 39.8833 -75.2333 232° Southwest 145 167 700  Level Philadelphia TRACON
09:18PM 39.9000 -75.1667 72° East 197 227 3,200 2,160 Climbing Philadelphia TRACON
09:19PM 39.9333 -75.1000 57° Northeast 220 253 5,500 2,400 Climbing Philadelphia TRACON
09:20PM 39.8334 -75.6847 270° West  Level FlightAware Approximate
09:20PM 39.9667 -75.1667 303° West 277 319 8,000  Level Philadelphia TRACON
09:21PM 39.8074 -75.8266 232° Southwest  Level FlightAware Approximate
09:21PM 39.9500 -75.2333 252° West 276 318 9,900  Level Philadelphia TRACON
09:22PM 39.7349 -75.9475 232° Southwest  Level FlightAware Approximate
09:23PM 39.9181 -75.4072 257° West 315 362 12,000  Level New York Center
09:24PM 39.8928 -75.5219 254° West 315 362 12,100  Climbing New York Center
09:25PM 39.8847 -75.6189 264° West 315 362 12,100 240 Level New York Center
09:26PM 39.8486 -75.7300 247° West 302 348 12,600 1,560 Climbing New York Center
09:27PM 39.7950 -75.8181 232° Southwest 337 388 15,300 2,760 Climbing New York Center
09:28PM 39.7275 -75.9292 232° Southwest 355 409 18,100 2,640 Climbing New York Center
09:29PM 39.6622 -76.0403 233° Southwest 375 432 20,600 2,400 Climbing New York Center
09:30PM 39.5906 -76.1508 230° Southwest 392 451 23,000 2,340 Climbing New York Center
09:31PM 39.5219 -76.2911 238° Southwest 393 452 25,800 2,220 Climbing Washington Center
09:32PM 39.4503 -76.4111 232° Southwest 412 474 27,900 1,920 Climbing Washington Center
09:33PM 39.3914 -76.5019 230° Southwest 417 480 29,600 1,020 Climbing Washington Center
09:34PM 39.3050 -76.6297 229° Southwest 428 493 30,000 180 Climbing Washington Center
09:35PM 39.2308 -76.7464 231° Southwest 428 493 30,000  Level Washington Center
09:36PM 39.1589 -76.8578 230° Southwest 428 493 30,000  Level Washington Center
09:37PM 39.0847 -76.9742 231° Southwest 428 493 30,000  Level Washington Center
09:38PM 39.0022 -77.0819 225° Southwest 428 493 30,000  Level Washington Center
09:39PM 38.9156 -77.1789 221° Southwest 422 486 30,000  Level Washington Center
09:40PM 38.8244 -77.2783 220° Southwest 422 486 30,000  Level Washington Center
09:41PM 38.7269 -77.3853 221° Southwest 427 491 30,000  Level Washington Center
09:42PM 38.6378 -77.4842 221° Southwest 432 497 30,000  Level Washington Center
09:43PM 38.5489 -77.5828 221° Southwest 432 497 30,000  Level Washington Center
09:44PM 38.4575 -77.6783 219° Southwest 432 497 30,000  Level Washington Center
09:45PM 38.3703 -77.7764 221° Southwest 432 497 30,000  Level Washington Center
09:46PM 38.2808 -77.8692 219° Southwest 427 491 30,000  Level Washington Center
09:47PM 38.1914 -77.9667 221° Southwest 427 491 30,000  Level Washington Center
09:48PM 38.1019 -78.0617 220° Southwest 427 491 30,000  Level Washington Center
09:49PM 38.0125 -78.1508 218° Southwest 422 486 30,000  Level Washington Center
09:50PM 37.9336 -78.2350 220° Southwest 416 479 30,000  Level Washington Center
09:51PM 37.8314 -78.3289 216° Southwest 410 472 30,000  Level Washington Center
09:52PM 37.7397 -78.4147 217° Southwest 416 479 30,000  Level Washington Center
09:53PM 37.6456 -78.5058 217° Southwest 421 484 30,000  Level Washington Center
09:54PM 37.5539 -78.5914 217° Southwest 421 484 30,000  Level Washington Center
09:55PM 37.4642 -78.6742 216° Southwest 416 479 30,000  Level Washington Center
09:56PM 37.3786 -78.7517 216° Southwest 416 479 30,000  Level Washington Center
09:57PM 37.2867 -78.8367 216° Southwest 416 479 30,000  Level Washington Center
09:58PM 37.1947 -78.9214 216° Southwest 416 479 30,000  Level Washington Center
09:59PM 37.1047 -79.0061 217° Southwest 416 479 30,000  Level Washington Center
10:00PM 37.0039 -79.1003 217° Southwest 416 479 30,000  Level Washington Center
10:01PM 36.9139 -79.1844 217° Southwest 416 479 30,000  Level Washington Center
10:02PM 36.8236 -79.2686 217° Southwest 416 479 30,000  Level Washington Center
10:03PM 36.7333 -79.3500 216° Southwest 410 472 30,000  Level Washington Center
10:04PM 36.6453 -79.4336 217° Southwest 410 472 30,000  Level Washington Center
10:05PM 36.5658 -79.5047 216° Southwest 405 466 30,000  Level Washington Center
10:06PM 36.4775 -79.5856 216° Southwest 399 459 30,000  Level Washington Center
10:06PM 36.4233 -79.6319 215° Southwest 402 463 30,000  Level Atlanta Center
10:07PM 36.3344 -79.7114 216° Southwest 397 457 30,000  Level Atlanta Center
10:08PM 36.2475 -79.7908 216° Southwest 397 457 30,000  Level Atlanta Center
10:09PM 36.1667 -79.8644 216° Southwest 402 463 30,000  Level Atlanta Center
10:10PM 36.0775 -79.9411 215° Southwest 402 463 30,000  Level Atlanta Center
10:12PM 35.9770 -79.9949 202° Southwest  Level FlightAware Approximate
10:12PM 35.8769 -80.0589 202° Southwest 396 456 30,000  Level Atlanta Center
10:13PM 35.7661 -80.1128 202° Southwest 396 456 30,000  Level Atlanta Center
10:14PM 35.6694 -80.1608 202° Southwest 402 463 30,000  Level Atlanta Center
10:15PM 35.5711 -80.2142 204° Southwest 408 470 30,000  Level Atlanta Center
10:17PM 35.4684 -80.2623 201° Southwest  Level FlightAware Approximate
10:17PM 35.3553 -80.3183 201° Southwest 401 461 30,000  Level Atlanta Center
10:20PM 35.1369 -80.4281 202° Southwest 398 458 30,000  Level Jacksonville Center
10:21PM 35.0336 -80.4767 201° Southwest 398 458 30,000  Level Jacksonville Center
10:22PM 34.9322 -80.5250 201° Southwest 398 458 30,000  Level Jacksonville Center
10:23PM 34.8394 -80.5706 202° Southwest 398 458 30,000  Level Jacksonville Center
10:24PM 34.7300 -80.6292 204° Southwest 392 451 30,000  Level Jacksonville Center
10:25PM 34.6286 -80.6747 200° South 392 451 30,000  Level Jacksonville Center
10:26PM 34.5314 -80.7225 202° Southwest 403 464 30,000  Level Jacksonville Center
10:27PM 34.4339 -80.7653 200° South 395 455 30,000  Level Jacksonville Center
10:28PM 34.3203 -80.8258 204° Southwest 395 455 30,000 -60 Level Jacksonville Center
10:29PM 34.2250 -80.8683 200° South 383 441 29,900  Descending Jacksonville Center
10:30PM 34.1256 -80.9158 202° Southwest 383 441 30,000  Climbing Jacksonville Center
10:31PM 34.0261 -80.9631 201° Southwest 390 449 30,000  Level Jacksonville Center
10:32PM 33.9267 -81.0078 200° South 390 449 30,000 -60 Level Jacksonville Center
10:33PM 33.8292 -81.0525 201° Southwest 385 443 29,900 -600 Descending Jacksonville Center
10:34PM 33.7278 -81.1019 202° Southwest 385 443 28,800 -1,020 Descending Jacksonville Center
10:35PM 33.6261 -81.1514 202° Southwest 396 456 27,900 -420 Descending Jacksonville Center
10:36PM 33.5244 -81.1958 200° South 396 456 28,000  Climbing Jacksonville Center
10:37PM 33.4228 -81.2425 201° Southwest 390 449 28,000  Level Jacksonville Center
10:38PM 33.3211 -81.2917 202° Southwest 390 449 28,000  Level Jacksonville Center
10:39PM 33.2217 -81.3358 200° South 390 449 28,000  Level Jacksonville Center
10:40PM 33.1219 -81.3847 202° Southwest 390 449 28,000 -60 Level Jacksonville Center
10:41PM 33.0222 -81.4308 201° Southwest 390 449 27,900  Descending Jacksonville Center
10:42PM 32.9206 -81.4769 201° Southwest 390 449 28,000 -180 Climbing Jacksonville Center
10:43PM 32.8189 -81.5206 200° South 390 449 27,600 -720 Descending Jacksonville Center
10:44PM 32.7192 -81.5667 201° Southwest 390 449 26,600 -840 Descending Jacksonville Center
10:45PM 32.6214 -81.6150 203° Southwest 384 442 26,000 -300 Descending Jacksonville Center
10:46PM 32.5258 -81.6433 194° South 389 448 26,000  Level Jacksonville Center
10:47PM 32.4111 -81.6719 192° South 394 453 26,000  Level Jacksonville Center
10:48PM 32.3133 -81.6956 192° South 394 453 26,000  Level Jacksonville Center
10:49PM 32.1967 -81.7239 192° South 394 453 26,000  Level Jacksonville Center
10:50PM 32.0906 -81.7522 193° South 394 453 26,000  Level Jacksonville Center
10:51PM 31.9947 -81.7756 192° South 394 453 26,000  Level Jacksonville Center
10:52PM 31.8800 -81.8014 191° South 394 453 26,000  Level Jacksonville Center
10:54PM 31.6694 -81.8575 193° South 394 453 26,000  Level Jacksonville Center
10:55PM 31.5611 -81.8831 191° South 394 453 26,000  Level Jacksonville Center
10:56PM 31.4694 -81.9061 192° South 394 453 26,000  Level Jacksonville Center
10:57PM 31.3633 -81.9314 191° South 394 453 26,000  Level Jacksonville Center
10:58PM 31.2550 -81.9594 192° South 394 453 26,000  Level Jacksonville Center
10:59PM 31.1486 -81.9872 193° South 394 453 26,000  Level Jacksonville Center
11:00PM 31.0422 -82.0147 192° South 394 453 26,000  Level Jacksonville Center
11:01PM 30.9358 -82.0375 190° South 394 453 26,000  Level Jacksonville Center
11:02PM 30.8297 -82.0653 193° South 394 453 26,000 -60 Level Jacksonville Center
11:03PM 30.7211 -82.0903 191° South 394 453 25,900 -600 Descending Jacksonville Center
11:04PM 30.6128 -82.1008 185° South 394 453 24,900 -1,020 Descending Jacksonville Center
11:05PM 30.4958 -82.1042 181° South 386 444 23,900 -480 Descending Jacksonville Center
11:06PM 30.3872 -82.1125 184° South 386 444 24,000  Climbing Jacksonville Center
11:07PM 30.2789 -82.1253 186° South 386 444 24,000  Level Jacksonville Center
11:08PM 30.1744 -82.1358 185° South 386 444 24,000  Level Jacksonville Center
11:09PM 30.0639 -82.1439 184° South 386 444 24,000  Level Jacksonville Center
11:10PM 29.9575 -82.1567 186° South 386 444 24,000 -420 Level Jacksonville Center
11:11PM 29.8489 -82.1669 185° South 386 444 23,200 -960 Descending Jacksonville Center
11:12PM 29.7447 -82.1700 181° South 386 444 22,100 -1,080 Descending Jacksonville Center
11:13PM 29.6383 -82.1806 185° South 386 444 21,100 -960 Descending Jacksonville Center
11:14PM 29.5358 -82.1908 185° South 381 438 20,200 -960 Descending Jacksonville Center
11:15PM 29.4336 -82.1986 184° South 381 438 19,200 -1,020 Descending Jacksonville Center
11:16PM 29.3336 -82.2089 185° South 375 432 18,200 -900 Descending Jacksonville Center
11:17PM 29.2314 -82.2144 183° South 370 426 17,400 -840 Descending Jacksonville Center
11:18PM 29.1394 -82.2269 187° South 370 426 16,600 -900 Descending Jacksonville Center
11:19PM 29.0372 -82.2325 183° South 370 426 15,600 -1,020 Descending Jacksonville Center
11:20PM 28.9372 -82.2378 183° South 370 426 14,600 -1,020 Descending Jacksonville Center
11:21PM 28.8369 -82.2478 185° South 365 420 13,600 -900 Descending Jacksonville Center
11:24PM 28.5833 -82.2833 187° South 290 334 11,200 -840 Descending Tampa TRACON
11:25PM 28.5167 -82.3167 204° Southwest 281 323 10,300 -1,140 Descending Tampa TRACON
11:26PM 28.4333 -82.3667 208° Southwest 283 326 9,000 -1,020 Descending Tampa TRACON
11:27PM 28.3667 -82.4000 204° Southwest 254 292 8,300 -960 Descending Tampa TRACON
11:28PM 28.3167 -82.4333 210° Southwest 244 281 7,100 -1,200 Descending Tampa TRACON
11:29PM 28.2500 -82.4667 204° Southwest 245 282 5,900 -1,080 Descending Tampa TRACON
11:30PM 28.2000 -82.5167 221° Southwest 236 272 5,000 -1,440 Descending Tampa TRACON
11:31PM 28.1333 -82.5333 192° South 211 243 3,100 -1,560 Descending Tampa TRACON
11:32PM 28.0833 -82.5333 180° South 160 184 1,800 -1,200 Descending Tampa TRACON